Barstein — LK7148 — position and weather

sailwx.info

Track history (hours):
 
Tides and Currents Weather Stations Pressure Air Temp Water Temp Dewpoint Dewpoint Depression Visibility Wind Speed Wind Dir Waves Ship Positions

Barstein

Last reported at 2018-Jun-20 11:47 UTC. Time now 2018-Jun-20 14:45 UTC.
Position N 67°24' E 013°54'.

Length 15 m; draft 2.8 m.

Type: Fishing. MMSI: 257084140.

Date/timePositionNaut miles runAvg speedWind from/ knotsBaromVisibWave heightAir tempDewpointWater temp
2018-Jun-20 11:47N 67°24' E 013°54'2 6.4
2018-Jun-20 11:30N 67°23' E 013°51'3 6.5
2018-Jun-20 11:00N 67°20' E 013°56'3 6.7
2018-Jun-20 10:30N 67°18' E 014°01'3 6.5
2018-Jun-20 10:00N 67°14' E 014°02'3 6.9
2018-Jun-20 09:30N 67°11' E 014°02'4 7.0
2018-Jun-20 09:00N 67°08' E 013°58'2 4.6
2018-Jun-20 08:31N 67°06' E 013°57'4 8.0
2018-Jun-20 08:00N 67°02' E 013°50'4 7.9
2018-Jun-20 07:30N 66°60' E 013°43'4 7.3
2018-Jun-20 07:00N 66°58' E 013°35'4 6.0
2018-Jun-20 06:24N 66°55' E 013°29'14 7.5
2018-Jun-20 04:34N 66°43' E 013°11'12 7.9
2018-Jun-20 03:04N 66°33' E 013°00'2 8.2
2018-Jun-20 02:51N 66°31' E 012°58'3 8.1
2018-Jun-20 02:30N 66°28' E 012°59'4 8.3
2018-Jun-20 02:00N 66°24' E 012°58'4 8.0
2018-Jun-20 01:29N 66°20' E 012°57'8 7.8
2018-Jun-20 00:29N 66°12' E 012°52'61 7.1
2018-Jun-19 15:50N 65°15' E 011°56'3 8.4
2018-Jun-19 15:29N 65°13' E 011°53'6 8.3
2018-Jun-19 14:42N 65°07' E 011°48'2 8.6
2018-Jun-19 14:28N 65°05' E 011°46'4 8.6
2018-Jun-19 14:00N 65°01' E 011°41'4 8.3
2018-Jun-19 13:30N 64°58' E 011°35'4 8.8
2018-Jun-19 13:00N 64°56' E 011°26'5 9.3
2018-Jun-19 12:30N 64°53' E 011°18'5 9.3
2018-Jun-19 12:00N 64°49' E 011°10'4 8.4
2018-Jun-19 11:31N 64°46' E 011°03'4 7.9
2018-Jun-19 11:00N 64°43' E 010°58'70 7.7
2018-Jun-19 01:54N 63°44' E 009°32'4 7.9
2018-Jun-19 01:27N 63°40' E 009°29'3 7.8
2018-Jun-19 01:00N 63°37' E 009°28'7 8.1
2018-Jun-19 00:07N 63°33' E 009°15'2 8.9
2018-Jun-18 23:55N 63°32' E 009°11'5 9.2
2018-Jun-18 23:24N 63°29' E 009°02'26 8.3
2018-Jun-18 20:15N 63°17' E 008°11'2 8.4
2018-Jun-18 20:00N 63°16' E 008°07'4 8.3
2018-Jun-18 19:30N 63°13' E 007°60'4 8.2
2018-Jun-18 19:00N 63°10' E 007°53'4 8.1
2018-Jun-18 18:29N 63°09' E 007°45'4 7.6
2018-Jun-18 18:00N 63°07' E 007°38'4 7.1
2018-Jun-18 17:30N 63°05' E 007°33'3 6.6
2018-Jun-18 17:00N 63°03' E 007°26'4 7.2
2018-Jun-18 16:30N 63°02' E 007°18'4 7.4
2018-Jun-18 16:00N 63°01' E 007°11'4 7.5
2018-Jun-18 15:28N 62°59' E 007°03'4 7.2
2018-Jun-18 14:59N 62°57' E 006°57'4 7.7
2018-Jun-18 14:29N 62°53' E 006°53'4 8.1
2018-Jun-18 14:00N 62°51' E 006°46'4 7.7
2018-Jun-18 13:30N 62°48' E 006°41'4 7.7
2018-Jun-18 13:00N 62°44' E 006°38'8 5.2
2018-Jun-18 11:24N 62°38' E 006°27'7 7.7
2018-Jun-18 10:28N 62°34' E 006°13'5 7.8
2018-Jun-18 09:50N 62°30' E 006°09'2 2.5
2018-Jun-18 09:10N 62°28' E 006°07'0 0.0
2018-Jun-18 08:59N 62°28' E 006°07'1 1.1
2018-Jun-18 08:30N 62°28' E 006°06'  
2018-Jun-13 11:39N 62°28' E 006°06'1 4.3
2018-Jun-13 11:30N 62°28' E 006°07'2 4.6
2018-Jun-13 11:00N 62°31' E 006°09'4 7.9
2018-Jun-13 10:30N 62°34' E 006°12'15 6.0
2018-Jun-13 08:03N 62°42' E 006°39'2 7.7
2018-Jun-13 07:50N 62°44' E 006°37'3 8.2
2018-Jun-13 07:30N 62°46' E 006°36'4 8.1
2018-Jun-13 07:00N 62°50' E 006°38'7 0.2
2018-Jun-11 10:26N 62°55' E 006°51'2 2.6
2018-Jun-11 09:39N 62°54' E 006°54'1 6.8
2018-Jun-11 09:28N 62°53' E 006°57'1 1.3
2018-Jun-11 09:00N 62°54' E 006°57'1 1.1
2018-Jun-11 08:30N 62°53' E 006°58'0 0.1
2018-Jun-11 08:00N 62°53' E 006°58'0 0.0
2018-Jun-11 07:30N 62°53' E 006°58'0 0.0
2018-Jun-11 07:00N 62°53' E 006°58'0 0.1
2018-Jun-11 06:30N 62°53' E 006°58'0 0.0
2018-Jun-11 06:00N 62°53' E 006°58'0 0.0
2018-Jun-11 05:30N 62°53' E 006°58'0 0.0
2018-Jun-11 05:00N 62°53' E 006°58'0 0.0
2018-Jun-11 04:30N 62°53' E 006°58'0 0.0
2018-Jun-11 04:00N 62°53' E 006°58'0 0.0
2018-Jun-11 03:30N 62°53' E 006°58'0 0.0
2018-Jun-11 03:00N 62°53' E 006°58'0 0.0
2018-Jun-11 02:30N 62°53' E 006°58'0 0.0
2018-Jun-11 02:00N 62°53' E 006°58'0 0.0
2018-Jun-11 01:30N 62°53' E 006°58'0 0.0
2018-Jun-11 01:00N 62°53' E 006°58'0 0.0
2018-Jun-11 00:30N 62°53' E 006°58'0 0.0
2018-Jun-11 00:00N 62°53' E 006°58'0 0.0
2018-Jun-10 23:29N 62°53' E 006°58'0 0.7
2018-Jun-10 23:01N 62°53' E 006°57'3 7.0
2018-Jun-10 22:30N 62°52' E 006°50'4 7.0
2018-Jun-10 21:59N 62°49' E 006°44'3 7.2
2018-Jun-10 21:30N 62°47' E 006°40'4 7.1
2018-Jun-10 20:55N 62°42' E 006°39'  
Track history (hours):
 
Tides and Currents Weather Stations Pressure Air Temp Water Temp Dewpoint Dewpoint Depression Visibility Wind Speed Wind Dir Waves Ship Positions

Barstein

Last reported at 2018-Jun-20 11:47 UTC. Time now 2018-Jun-20 14:45 UTC.
Position N 67°24' E 013°54'.

Length 15 m; draft 2.8 m.

Type: Fishing. MMSI: 257084140.

Date/timePositionNaut miles runAvg speedWind from/ knotsBaromVisibWave heightAir tempDewpointWater temp
2018-Jun-20 11:47N 67°24' E 013°54'2 6.4
2018-Jun-20 11:30N 67°23' E 013°51'3 6.5
2018-Jun-20 11:00N 67°20' E 013°56'3 6.7
2018-Jun-20 10:30N 67°18' E 014°01'3 6.5
2018-Jun-20 10:00N 67°14' E 014°02'3 6.9
2018-Jun-20 09:30N 67°11' E 014°02'4 7.0
2018-Jun-20 09:00N 67°08' E 013°58'2 4.6
2018-Jun-20 08:31N 67°06' E 013°57'4 8.0
2018-Jun-20 08:00N 67°02' E 013°50'4 7.9
2018-Jun-20 07:30N 66°60' E 013°43'4 7.3
2018-Jun-20 07:00N 66°58' E 013°35'4 6.0
2018-Jun-20 06:24N 66°55' E 013°29'14 7.5
2018-Jun-20 04:34N 66°43' E 013°11'12 7.9
2018-Jun-20 03:04N 66°33' E 013°00'2 8.2
2018-Jun-20 02:51N 66°31' E 012°58'3 8.1
2018-Jun-20 02:30N 66°28' E 012°59'4 8.3
2018-Jun-20 02:00N 66°24' E 012°58'4 8.0
2018-Jun-20 01:29N 66°20' E 012°57'8 7.8
2018-Jun-20 00:29N 66°12' E 012°52'61 7.1
2018-Jun-19 15:50N 65°15' E 011°56'3 8.4
2018-Jun-19 15:29N 65°13' E 011°53'6 8.3
2018-Jun-19 14:42N 65°07' E 011°48'2 8.6
2018-Jun-19 14:28N 65°05' E 011°46'4 8.6
2018-Jun-19 14:00N 65°01' E 011°41'4 8.3
2018-Jun-19 13:30N 64°58' E 011°35'4 8.8
2018-Jun-19 13:00N 64°56' E 011°26'5 9.3
2018-Jun-19 12:30N 64°53' E 011°18'5 9.3
2018-Jun-19 12:00N 64°49' E 011°10'4 8.4
2018-Jun-19 11:31N 64°46' E 011°03'4 7.9
2018-Jun-19 11:00N 64°43' E 010°58'70 7.7
2018-Jun-19 01:54N 63°44' E 009°32'4 7.9
2018-Jun-19 01:27N 63°40' E 009°29'3 7.8
2018-Jun-19 01:00N 63°37' E 009°28'7 8.1
2018-Jun-19 00:07N 63°33' E 009°15'2 8.9
2018-Jun-18 23:55N 63°32' E 009°11'5 9.2
2018-Jun-18 23:24N 63°29' E 009°02'26 8.3
2018-Jun-18 20:15N 63°17' E 008°11'2 8.4
2018-Jun-18 20:00N 63°16' E 008°07'4 8.3
2018-Jun-18 19:30N 63°13' E 007°60'4 8.2
2018-Jun-18 19:00N 63°10' E 007°53'4 8.1
2018-Jun-18 18:29N 63°09' E 007°45'4 7.6
2018-Jun-18 18:00N 63°07' E 007°38'4 7.1
2018-Jun-18 17:30N 63°05' E 007°33'3 6.6
2018-Jun-18 17:00N 63°03' E 007°26'4 7.2
2018-Jun-18 16:30N 63°02' E 007°18'4 7.4
2018-Jun-18 16:00N 63°01' E 007°11'4 7.5
2018-Jun-18 15:28N 62°59' E 007°03'4 7.2
2018-Jun-18 14:59N 62°57' E 006°57'4 7.7
2018-Jun-18 14:29N 62°53' E 006°53'4 8.1
2018-Jun-18 14:00N 62°51' E 006°46'4 7.7
2018-Jun-18 13:30N 62°48' E 006°41'4 7.7
2018-Jun-18 13:00N 62°44' E 006°38'8 5.2
2018-Jun-18 11:24N 62°38' E 006°27'7 7.7
2018-Jun-18 10:28N 62°34' E 006°13'5 7.8
2018-Jun-18 09:50N 62°30' E 006°09'2 2.5
2018-Jun-18 09:10N 62°28' E 006°07'0 0.0
2018-Jun-18 08:59N 62°28' E 006°07'1 1.1
2018-Jun-18 08:30N 62°28' E 006°06'  
2018-Jun-13 11:39N 62°28' E 006°06'1 4.3
2018-Jun-13 11:30N 62°28' E 006°07'2 4.6
2018-Jun-13 11:00N 62°31' E 006°09'4 7.9
2018-Jun-13 10:30N 62°34' E 006°12'15 6.0
2018-Jun-13 08:03N 62°42' E 006°39'2 7.7
2018-Jun-13 07:50N 62°44' E 006°37'3 8.2
2018-Jun-13 07:30N 62°46' E 006°36'4 8.1
2018-Jun-13 07:00N 62°50' E 006°38'7 0.2
2018-Jun-11 10:26N 62°55' E 006°51'2 2.6
2018-Jun-11 09:39N 62°54' E 006°54'1 6.8
2018-Jun-11 09:28N 62°53' E 006°57'1 1.3
2018-Jun-11 09:00N 62°54' E 006°57'1 1.1
2018-Jun-11 08:30N 62°53' E 006°58'0 0.1
2018-Jun-11 08:00N 62°53' E 006°58'0 0.0
2018-Jun-11 07:30N 62°53' E 006°58'0 0.0
2018-Jun-11 07:00N 62°53' E 006°58'0 0.1
2018-Jun-11 06:30N 62°53' E 006°58'0 0.0
2018-Jun-11 06:00N 62°53' E 006°58'0 0.0
2018-Jun-11 05:30N 62°53' E 006°58'0 0.0
2018-Jun-11 05:00N 62°53' E 006°58'0 0.0
2018-Jun-11 04:30N 62°53' E 006°58'0 0.0
2018-Jun-11 04:00N 62°53' E 006°58'0 0.0
2018-Jun-11 03:30N 62°53' E 006°58'0 0.0
2018-Jun-11 03:00N 62°53' E 006°58'0 0.0
2018-Jun-11 02:30N 62°53' E 006°58'0 0.0
2018-Jun-11 02:00N 62°53' E 006°58'0 0.0
2018-Jun-11 01:30N 62°53' E 006°58'0 0.0
2018-Jun-11 01:00N 62°53' E 006°58'0 0.0
2018-Jun-11 00:30N 62°53' E 006°58'0 0.0
2018-Jun-11 00:00N 62°53' E 006°58'0 0.0
2018-Jun-10 23:29N 62°53' E 006°58'0 0.7
2018-Jun-10 23:01N 62°53' E 006°57'3 7.0
2018-Jun-10 22:30N 62°52' E 006°50'4 7.0
2018-Jun-10 21:59N 62°49' E 006°44'3 7.2
2018-Jun-10 21:30N 62°47' E 006°40'4 7.1
2018-Jun-10 20:55N 62°42' E 006°39'  

Dump ship's entire track history